createdAt,value
2016-11-26T00:00:38.509Z,-87
2016-11-26T00:01:38.620Z,-87
2016-11-26T00:02:38.597Z,-87
2016-11-26T00:03:38.455Z,-87
2016-11-26T00:04:38.418Z,-87
2016-11-26T00:05:38.519Z,-87
2016-11-26T00:06:38.456Z,-88
2016-11-26T00:07:38.369Z,-87
2016-11-26T00:08:38.519Z,-87
2016-11-26T00:09:38.647Z,-88
2016-11-26T00:10:38.402Z,-87
2016-11-26T00:11:38.531Z,-87
2016-11-26T00:12:38.464Z,-87
2016-11-26T00:13:38.456Z,-87
2016-11-26T00:14:38.473Z,-88
2016-11-26T00:15:38.548Z,-87
2016-11-26T00:16:38.499Z,-87
2016-11-26T00:17:38.497Z,-87
2016-11-26T00:18:38.485Z,-87
2016-11-26T00:19:38.503Z,-87
2016-11-26T00:20:38.523Z,-87
2016-11-26T00:21:38.572Z,-87
2016-11-26T00:22:38.576Z,-87
2016-11-26T00:23:38.582Z,-87
2016-11-26T00:24:38.586Z,-87
2016-11-26T00:25:38.642Z,-87
2016-11-26T00:26:38.485Z,-87
2016-11-26T00:27:38.594Z,-87
2016-11-26T00:28:38.580Z,-88
2016-11-26T00:29:38.570Z,-87
2016-11-26T00:30:38.602Z,-87
2016-11-26T00:31:38.695Z,-87
2016-11-26T00:32:38.537Z,-88
2016-11-26T00:33:38.530Z,-87
2016-11-26T00:34:38.600Z,-87
2016-11-26T00:35:38.622Z,-87
2016-11-26T00:36:38.564Z,-87
2016-11-26T00:37:38.670Z,-87
2016-11-26T00:38:38.465Z,-87
2016-11-26T00:39:38.654Z,-88
2016-11-26T00:40:38.541Z,-87
2016-11-26T00:41:38.655Z,-88
2016-11-26T00:42:38.542Z,-88
2016-11-26T00:43:38.560Z,-87
2016-11-26T00:44:38.635Z,-88
2016-11-26T00:45:38.567Z,-87
2016-11-26T00:46:38.566Z,-87
2016-11-26T00:47:38.770Z,-88
2016-11-26T00:48:38.598Z,-87
2016-11-26T00:49:38.571Z,-87
2016-11-26T00:50:38.571Z,-87
2016-11-26T00:51:38.663Z,-87
2016-11-26T00:52:38.672Z,-88
2016-11-26T00:53:38.822Z,-87
2016-11-26T00:54:38.498Z,-89
2016-11-26T00:55:38.581Z,-87
2016-11-26T00:56:38.736Z,-87
2016-11-26T00:57:38.615Z,-87
2016-11-26T00:58:38.676Z,-88
2016-11-26T00:59:38.681Z,-88
2016-11-26T01:00:38.619Z,-88
2016-11-26T01:01:38.716Z,-87
2016-11-26T01:02:38.694Z,-88
2016-11-26T01:03:38.745Z,-87
2016-11-26T01:04:38.754Z,-87
2016-11-26T01:05:38.554Z,-88
2016-11-26T01:06:38.549Z,-87
2016-11-26T01:07:38.694Z,-87
2016-11-26T01:08:38.719Z,-87
2016-11-26T01:09:38.689Z,-87
2016-11-26T01:10:38.650Z,-88
2016-11-26T01:11:38.703Z,-87
2016-11-26T01:12:38.726Z,-87
2016-11-26T01:13:38.771Z,-87
2016-11-26T01:14:38.656Z,-88
2016-11-26T01:15:38.627Z,-88
2016-11-26T01:16:38.560Z,-87
2016-11-26T01:17:38.654Z,-88
2016-11-26T01:18:38.803Z,-88
2016-11-26T01:19:38.841Z,-87
2016-11-26T01:20:38.619Z,-87
2016-11-26T01:21:38.716Z,-87
2016-11-26T01:22:38.670Z,-88
2016-11-26T01:23:38.770Z,-87
2016-11-26T01:24:38.793Z,-87
2016-11-26T01:25:38.652Z,-88
2016-11-26T01:26:38.650Z,-85
2016-11-26T01:27:38.695Z,-85
2016-11-26T01:28:38.732Z,-85
2016-11-26T01:29:38.686Z,-85
2016-11-26T01:30:38.750Z,-85
2016-11-26T01:31:38.823Z,-85
2016-11-26T01:32:38.829Z,-85
2016-11-26T01:33:38.666Z,-85
2016-11-26T01:34:38.708Z,-84
2016-11-26T01:35:38.749Z,-85
2016-11-26T01:36:38.674Z,-84
2016-11-26T01:37:38.760Z,-85
2016-11-26T01:38:38.695Z,-84
2016-11-26T01:39:38.798Z,-84
2016-11-26T01:40:38.735Z,-85
2016-11-26T01:41:38.876Z,-84
2016-11-26T01:42:38.772Z,-85
2016-11-26T01:43:38.765Z,-85
2016-11-26T01:44:38.699Z,-85
2016-11-26T01:45:38.800Z,-85
2016-11-26T01:46:38.797Z,-85
2016-11-26T01:47:38.789Z,-85
2016-11-26T01:48:38.709Z,-85
2016-11-26T01:49:38.788Z,-85
2016-11-26T01:50:38.793Z,-85
2016-11-26T01:51:38.712Z,-85
2016-11-26T01:52:38.640Z,-85
2016-11-26T01:53:38.722Z,-84
2016-11-26T01:54:38.649Z,-85
2016-11-26T01:55:38.897Z,-84
2016-11-26T01:56:38.939Z,-85
2016-11-26T01:57:38.758Z,-85
2016-11-26T01:58:38.954Z,-85
2016-11-26T01:59:38.770Z,-84
2016-11-26T02:00:38.825Z,-85
2016-11-26T02:01:38.769Z,-84
2016-11-26T02:02:38.834Z,-84
2016-11-26T02:03:38.784Z,-84
2016-11-26T02:04:38.765Z,-85
2016-11-26T02:05:38.754Z,-85
2016-11-26T02:06:38.784Z,-85
2016-11-26T02:07:38.758Z,-85
2016-11-26T02:08:38.683Z,-85
2016-11-26T02:09:38.844Z,-85
2016-11-26T02:10:38.880Z,-85
2016-11-26T02:11:38.849Z,-84
2016-11-26T02:12:38.891Z,-85
2016-11-26T02:13:38.885Z,-84
2016-11-26T02:14:38.788Z,-84
2016-11-26T02:15:38.721Z,-85
2016-11-26T02:16:38.711Z,-85
2016-11-26T02:17:38.823Z,-85
2016-11-26T02:18:38.866Z,-85
2016-11-26T02:19:38.807Z,-84
2016-11-26T02:20:38.824Z,-85
2016-11-26T02:21:38.791Z,-84
2016-11-26T02:22:38.953Z,-85
2016-11-26T02:23:39.014Z,-85
2016-11-26T02:24:38.811Z,-85
2016-11-26T02:25:38.811Z,-84
2016-11-26T02:26:38.938Z,-85
2016-11-26T02:27:38.746Z,-85
2016-11-26T02:28:38.897Z,-85
2016-11-26T02:29:38.921Z,-85
2016-11-26T02:30:38.829Z,-85
2016-11-26T02:31:38.749Z,-85
2016-11-26T02:32:38.767Z,-85
2016-11-26T02:33:39.077Z,-85
2016-11-26T02:34:38.835Z,-84
2016-11-26T02:35:38.776Z,-85
2016-11-26T02:36:38.846Z,-85
2016-11-26T02:37:38.854Z,-85
2016-11-26T02:38:38.950Z,-85
2016-11-26T02:39:38.761Z,-85
2016-11-26T02:40:38.857Z,-84
2016-11-26T02:41:38.862Z,-85
2016-11-26T02:42:38.803Z,-84
2016-11-26T02:43:38.869Z,-85
2016-11-26T02:44:38.824Z,-85
2016-11-26T02:45:38.935Z,-84
2016-11-26T02:46:38.792Z,-85
2016-11-26T02:47:38.862Z,-84
2016-11-26T02:48:39.040Z,-85
2016-11-26T02:49:39.164Z,-84
2016-11-26T02:50:39.034Z,-84
2016-11-26T02:51:39.004Z,-85
2016-11-26T02:52:38.957Z,-85
2016-11-26T02:53:38.833Z,-85
2016-11-26T02:54:38.830Z,-84
2016-11-26T02:55:38.887Z,-84
2016-11-26T02:56:38.912Z,-84
2016-11-26T02:57:38.929Z,-85
2016-11-26T02:58:38.947Z,-85
2016-11-26T02:59:38.989Z,-85
2016-11-26T03:00:38.856Z,-85
2016-11-26T03:01:39.073Z,-85
2016-11-26T03:02:39.013Z,-85
2016-11-26T03:03:38.918Z,-85
2016-11-26T03:04:39.041Z,-85
2016-11-26T03:05:40.087Z,-85
2016-11-26T03:06:39.041Z,-85
2016-11-26T03:07:38.934Z,-85
2016-11-26T03:08:38.941Z,-85
2016-11-26T03:09:39.014Z,-84
2016-11-26T03:10:39.029Z,-84
2016-11-26T03:11:39.018Z,-85
2016-11-26T03:12:39.015Z,-84
2016-11-26T03:13:39.043Z,-84
2016-11-26T03:14:38.871Z,-85
2016-11-26T03:15:38.952Z,-84
2016-11-26T03:16:39.135Z,-84
2016-11-26T03:17:38.952Z,-84
2016-11-26T03:18:39.070Z,-85
2016-11-26T03:19:39.053Z,-85
2016-11-26T03:20:39.039Z,-84
2016-11-26T03:21:39.070Z,-84
2016-11-26T03:22:38.967Z,-84
2016-11-26T03:23:38.885Z,-85
2016-11-26T03:24:39.048Z,-85
2016-11-26T03:25:38.971Z,-85
2016-11-26T03:26:38.936Z,-84
2016-11-26T03:27:39.047Z,-84
2016-11-26T03:28:39.086Z,-85
2016-11-26T03:29:39.148Z,-84
2016-11-26T03:30:39.005Z,-84
2016-11-26T03:31:39.073Z,-84
2016-11-26T03:32:39.155Z,-85
2016-11-26T03:33:39.080Z,-84
2016-11-26T03:34:39.010Z,-85
2016-11-26T03:35:39.027Z,-84
2016-11-26T03:36:39.016Z,-85
2016-11-26T03:37:39.001Z,-85
2016-11-26T03:38:38.993Z,-84
2016-11-26T03:39:39.092Z,-84
2016-11-26T03:40:39.171Z,-84
2016-11-26T03:41:39.017Z,-84
2016-11-26T03:42:38.966Z,-84
2016-11-26T03:43:39.037Z,-85
2016-11-26T03:44:39.110Z,-84
2016-11-26T03:45:39.050Z,-85
2016-11-26T03:46:39.042Z,-84
2016-11-26T03:47:39.055Z,-84
2016-11-26T03:48:39.202Z,-85
2016-11-26T03:49:39.131Z,-84
2016-11-26T03:50:39.032Z,-85
2016-11-26T03:51:39.062Z,-85
2016-11-26T03:52:39.047Z,-84
2016-11-26T03:53:39.090Z,-85
2016-11-26T03:54:39.071Z,-85
2016-11-26T03:55:39.226Z,-85
2016-11-26T03:56:39.039Z,-84
2016-11-26T03:57:39.164Z,-84
2016-11-26T03:58:39.204Z,-85
2016-11-26T03:59:39.082Z,-84
2016-11-26T04:00:39.078Z,-85
2016-11-26T04:01:39.193Z,-84
2016-11-26T04:02:38.998Z,-84
2016-11-26T04:03:39.072Z,-85
2016-11-26T04:04:39.111Z,-84
2016-11-26T04:05:39.070Z,-85
2016-11-26T04:06:39.119Z,-84
2016-11-26T04:07:39.165Z,-84
2016-11-26T04:08:39.107Z,-84
2016-11-26T04:09:39.128Z,-85
2016-11-26T04:10:39.187Z,-85
2016-11-26T04:11:39.199Z,-85
2016-11-26T04:12:39.200Z,-84
2016-11-26T04:13:39.190Z,-85
2016-11-26T04:14:39.056Z,-85
2016-11-26T04:15:39.050Z,-84
2016-11-26T04:16:39.196Z,-85
2016-11-26T04:17:39.314Z,-85
2016-11-26T04:18:39.203Z,-84
2016-11-26T04:19:39.065Z,-85
2016-11-26T04:20:39.072Z,-85
2016-11-26T04:21:39.235Z,-84
2016-11-26T04:22:39.150Z,-85
2016-11-26T04:23:39.291Z,-85
2016-11-26T04:24:39.288Z,-85
2016-11-26T04:25:40.150Z,-84
2016-11-26T04:26:39.259Z,-84
2016-11-26T04:27:39.307Z,-85
2016-11-26T04:28:39.245Z,-85
2016-11-26T04:29:39.263Z,-85
2016-11-26T04:30:39.259Z,-85
2016-11-26T04:31:39.219Z,-85
2016-11-26T04:32:39.195Z,-85
2016-11-26T04:33:39.355Z,-85
2016-11-26T04:34:39.166Z,-85
2016-11-26T04:35:39.192Z,-84
2016-11-26T04:36:39.301Z,-85
2016-11-26T04:37:39.270Z,-85
2016-11-26T04:38:39.169Z,-83
2016-11-26T04:39:39.181Z,-84
2016-11-26T04:40:39.171Z,-85
2016-11-26T04:41:39.367Z,-84
2016-11-26T04:42:39.194Z,-85
2016-11-26T04:43:39.260Z,-85
2016-11-26T04:44:39.252Z,-85
2016-11-26T04:45:39.191Z,-84
2016-11-26T04:46:39.285Z,-85
2016-11-26T04:47:39.260Z,-84
2016-11-26T04:48:39.208Z,-84
2016-11-26T04:49:39.286Z,-84
2016-11-26T04:50:39.206Z,-84
2016-11-26T04:51:39.235Z,-84
2016-11-26T04:52:39.226Z,-84
2016-11-26T04:53:39.169Z,-84
2016-11-26T04:54:39.243Z,-85
2016-11-26T04:55:39.223Z,-85
2016-11-26T04:56:39.307Z,-84
2016-11-26T04:57:39.264Z,-85
2016-11-26T04:58:39.153Z,-85
2016-11-26T04:59:39.314Z,-84
2016-11-26T05:00:39.396Z,-85
2016-11-26T05:01:39.243Z,-84
2016-11-26T05:02:39.342Z,-84
2016-11-26T05:03:39.279Z,-84
2016-11-26T05:04:39.233Z,-84
2016-11-26T05:05:39.166Z,-84
2016-11-26T05:06:39.245Z,-85
2016-11-26T05:07:39.254Z,-85
2016-11-26T05:08:39.374Z,-85
2016-11-26T05:09:39.328Z,-84
2016-11-26T05:10:39.266Z,-84
2016-11-26T05:11:39.341Z,-84
2016-11-26T05:12:39.328Z,-84
2016-11-26T05:13:39.399Z,-84
2016-11-26T05:14:39.348Z,-84
2016-11-26T05:15:39.338Z,-84
2016-11-26T05:16:39.304Z,-84
2016-11-26T05:17:39.448Z,-84
2016-11-26T05:18:39.380Z,-85
2016-11-26T05:19:39.367Z,-83
2016-11-26T05:20:39.225Z,-84
2016-11-26T05:21:39.209Z,-84
2016-11-26T05:22:39.503Z,-84
2016-11-26T05:23:39.228Z,-84
2016-11-26T05:24:39.474Z,-85
2016-11-26T05:25:39.383Z,-85
2016-11-26T05:26:39.381Z,-85
2016-11-26T05:27:39.322Z,-84
2016-11-26T05:28:39.390Z,-84
2016-11-26T05:29:39.367Z,-84
2016-11-26T05:30:39.413Z,-85
2016-11-26T05:31:39.371Z,-84
2016-11-26T05:32:39.287Z,-85
2016-11-26T05:33:39.396Z,-84
2016-11-26T05:34:39.288Z,-84
2016-11-26T05:35:39.340Z,-84
2016-11-26T05:36:39.263Z,-84
2016-11-26T05:37:39.410Z,-84
2016-11-26T05:38:39.403Z,-85
2016-11-26T05:39:39.413Z,-84
2016-11-26T05:40:39.376Z,-84
2016-11-26T05:41:39.411Z,-84
2016-11-26T05:42:39.326Z,-84
2016-11-26T05:43:39.452Z,-84
2016-11-26T05:44:39.349Z,-85
2016-11-26T05:45:39.637Z,-85
2016-11-26T05:46:39.354Z,-84
2016-11-26T05:47:39.359Z,-84
2016-11-26T05:48:39.371Z,-85
2016-11-26T05:49:39.300Z,-85
2016-11-26T05:50:39.554Z,-85
2016-11-26T05:51:39.372Z,-84
2016-11-26T05:52:39.372Z,-84
2016-11-26T05:53:39.468Z,-85
2016-11-26T05:54:39.456Z,-84
2016-11-26T05:55:39.504Z,-84
2016-11-26T05:56:39.423Z,-85
2016-11-26T05:57:39.387Z,-85
2016-11-26T05:58:39.492Z,-84
2016-11-26T05:59:39.476Z,-85
2016-11-26T06:00:39.355Z,-85
2016-11-26T06:01:39.582Z,-85
2016-11-26T06:02:39.523Z,-84
2016-11-26T06:03:39.476Z,-84
2016-11-26T06:04:39.461Z,-84
2016-11-26T06:05:39.352Z,-84
2016-11-26T06:06:39.651Z,-84
2016-11-26T06:07:39.519Z,-85
2016-11-26T06:08:39.405Z,-85
2016-11-26T06:09:39.491Z,-84
2016-11-26T06:10:39.400Z,-84
2016-11-26T06:11:39.440Z,-84
2016-11-26T06:12:39.420Z,-84
2016-11-26T06:13:39.349Z,-84
2016-11-26T06:14:39.355Z,-84
2016-11-26T06:15:39.513Z,-84
2016-11-26T06:16:39.606Z,-84
2016-11-26T06:17:39.466Z,-84
2016-11-26T06:18:39.439Z,-84
2016-11-26T06:19:39.423Z,-84
2016-11-26T06:20:39.450Z,-85
2016-11-26T06:21:39.530Z,-84
2016-11-26T06:22:39.551Z,-84
2016-11-26T06:23:39.471Z,-84
2016-11-26T06:24:39.470Z,-84
2016-11-26T06:25:39.471Z,-84
2016-11-26T06:26:39.569Z,-84
2016-11-26T06:27:39.480Z,-84
2016-11-26T06:28:39.662Z,-84
2016-11-26T06:29:39.469Z,-84
2016-11-26T06:30:39.561Z,-84
2016-11-26T06:31:39.574Z,-84
2016-11-26T06:32:39.579Z,-85
2016-11-26T06:33:39.604Z,-83
2016-11-26T06:34:39.635Z,-84
2016-11-26T06:35:39.559Z,-85
2016-11-26T06:36:39.582Z,-84
2016-11-26T06:37:39.594Z,-85
2016-11-26T06:38:39.566Z,-84
2016-11-26T06:39:39.491Z,-85
2016-11-26T06:40:39.616Z,-84
2016-11-26T06:41:39.574Z,-84
2016-11-26T06:42:39.605Z,-85
2016-11-26T06:43:39.589Z,-84
2016-11-26T06:44:39.716Z,-84
2016-11-26T06:45:39.588Z,-84
2016-11-26T06:46:39.640Z,-84
2016-11-26T06:47:39.613Z,-84
2016-11-26T06:48:39.528Z,-84
2016-11-26T06:49:39.717Z,-85
2016-11-26T06:50:39.560Z,-84
2016-11-26T06:51:39.593Z,-84
2016-11-26T06:52:39.522Z,-84
2016-11-26T06:53:39.618Z,-85
2016-11-26T06:54:39.550Z,-84
2016-11-26T06:55:39.621Z,-84
2016-11-26T06:56:39.466Z,-84
2016-11-26T06:57:39.518Z,-84
2016-11-26T06:58:39.603Z,-84
2016-11-26T06:59:39.647Z,-84
2016-11-26T07:00:39.571Z,-84
2016-11-26T07:01:39.645Z,-84
2016-11-26T07:02:39.546Z,-84
2016-11-26T07:03:39.564Z,-84
2016-11-26T07:04:39.641Z,-84
2016-11-26T07:05:39.684Z,-84
2016-11-26T07:06:39.505Z,-90
2016-11-26T07:07:39.592Z,-95
2016-11-26T07:08:39.513Z,-92
2016-11-26T07:09:39.652Z,-94
2016-11-26T07:10:39.597Z,-94
2016-11-26T07:11:39.657Z,-95
2016-11-26T07:12:39.588Z,-95
2016-11-26T07:13:39.740Z,-93
2016-11-26T07:14:39.685Z,-93
2016-11-26T07:15:39.599Z,-95
2016-11-26T07:16:39.541Z,-93
2016-11-26T07:17:39.718Z,-94
2016-11-26T07:18:39.671Z,-95
2016-11-26T07:19:39.605Z,-95
2016-11-26T07:20:39.790Z,-94
2016-11-26T07:21:39.677Z,-94
2016-11-26T07:22:39.678Z,-95
2016-11-26T07:23:39.554Z,-93
2016-11-26T07:24:39.616Z,-92
2016-11-26T07:25:39.665Z,-92
2016-11-26T07:26:39.668Z,-94
2016-11-26T07:27:39.764Z,-95
2016-11-26T07:28:39.768Z,-94
2016-11-26T07:29:39.795Z,-94
2016-11-26T07:30:39.684Z,-95
2016-11-26T07:31:39.645Z,-94
2016-11-26T07:32:39.660Z,-94
2016-11-26T07:33:39.789Z,-95
2016-11-26T07:34:39.766Z,-94
2016-11-26T07:35:39.706Z,-94
2016-11-26T07:36:39.724Z,-93
2016-11-26T07:37:39.857Z,-95
2016-11-26T07:38:39.657Z,-94
2016-11-26T07:39:39.627Z,-94
2016-11-26T07:40:39.728Z,-94
2016-11-26T07:41:39.650Z,-93
2016-11-26T07:42:39.772Z,-94
2016-11-26T07:43:39.678Z,-95
2016-11-26T07:44:39.673Z,-93
2016-11-26T07:45:39.680Z,-94
2016-11-26T07:46:39.837Z,-94
2016-11-26T07:47:39.801Z,-94
2016-11-26T07:48:39.873Z,-94
2016-11-26T07:49:39.695Z,-95
2016-11-26T07:50:39.784Z,-93
2016-11-26T07:51:39.770Z,-93
2016-11-26T07:52:39.745Z,-94
2016-11-26T07:53:39.739Z,-94
2016-11-26T07:54:39.813Z,-95
2016-11-26T07:55:39.620Z,-94
2016-11-26T07:56:39.729Z,-95
2016-11-26T07:57:39.731Z,-94
2016-11-26T07:58:39.738Z,-95
2016-11-26T07:59:39.722Z,-95
2016-11-26T08:00:39.704Z,-95
2016-11-26T08:01:39.813Z,-95
2016-11-26T08:02:39.735Z,-95
2016-11-26T08:03:39.791Z,-96
2016-11-26T08:04:39.819Z,-94
2016-11-26T08:05:39.825Z,-94
2016-11-26T08:06:39.687Z,-95
2016-11-26T08:07:39.858Z,-92
2016-11-26T08:08:39.645Z,-93
2016-11-26T08:09:39.835Z,-84
2016-11-26T08:10:39.680Z,-86
2016-11-26T08:11:39.838Z,-93
2016-11-26T08:12:39.831Z,-95
2016-11-26T08:13:39.924Z,-95
2016-11-26T08:14:39.864Z,-94
2016-11-26T08:15:39.744Z,-94
2016-11-26T08:16:39.789Z,-94
2016-11-26T08:17:39.782Z,-95
2016-11-26T08:18:39.769Z,-95
2016-11-26T08:19:39.831Z,-95
2016-11-26T08:20:39.832Z,-95
2016-11-26T08:21:39.844Z,-96
2016-11-26T08:22:39.704Z,-94
2016-11-26T08:23:39.856Z,-96
2016-11-26T08:24:39.851Z,-94
2016-11-26T08:25:39.879Z,-94
2016-11-26T08:26:39.704Z,-94
2016-11-26T08:27:39.934Z,-95
2016-11-26T08:28:39.881Z,-95
2016-11-26T08:29:39.956Z,-95
2016-11-26T08:30:39.724Z,-95
2016-11-26T08:31:39.813Z,-94
2016-11-26T08:32:39.873Z,-92
2016-11-26T08:33:39.893Z,-87
2016-11-26T08:34:39.888Z,-89
2016-11-26T08:35:39.887Z,-84
2016-11-26T08:36:39.888Z,-84
2016-11-26T08:37:39.897Z,-85
2016-11-26T08:38:39.824Z,-85
2016-11-26T08:39:39.913Z,-87
2016-11-26T08:40:39.839Z,-85
2016-11-26T08:41:40.027Z,-83
2016-11-26T08:42:39.863Z,-84
2016-11-26T08:43:43.049Z,-85
2016-11-26T08:44:39.769Z,-83
2016-11-26T08:45:39.920Z,-85
2016-11-26T08:46:39.872Z,-84
2016-11-26T08:47:39.914Z,-84
2016-11-26T08:48:39.908Z,-86
2016-11-26T08:49:39.845Z,-84
2016-11-26T08:50:39.777Z,-85
2016-11-26T09:08:39.835Z,-87
2016-11-26T09:09:40.019Z,-91
2016-11-26T09:10:39.969Z,-91
2016-11-26T09:11:39.966Z,-92
2016-11-26T09:12:39.912Z,-87
2016-11-26T09:13:39.910Z,-87
2016-11-26T09:14:40.036Z,-85
2016-11-26T09:15:39.919Z,-90
2016-11-26T09:16:40.017Z,-84
2016-11-26T09:17:39.941Z,-84
2016-11-26T09:18:39.912Z,-86
2016-11-26T09:19:39.902Z,-87
2016-11-26T09:20:39.976Z,-86
2016-11-26T09:21:39.905Z,-83
2016-11-26T09:22:40.056Z,-86
2016-11-26T09:23:39.932Z,-85
2016-11-26T09:24:40.012Z,-85
2016-11-26T09:25:39.863Z,-86
2016-11-26T09:26:39.888Z,-84
2016-11-26T09:27:39.986Z,-84
2016-11-26T09:42:41.623Z,-87
2016-11-26T09:43:40.015Z,-86
2016-11-26T09:44:40.135Z,-86
2016-11-26T09:45:40.000Z,-96
2016-11-26T09:46:39.978Z,-90
2016-11-26T09:47:40.080Z,-85
2016-11-26T09:48:40.079Z,-93
2016-11-26T09:49:40.024Z,-85
2016-11-26T09:50:40.107Z,-93
2016-11-26T09:51:40.146Z,-92
2016-11-26T09:52:40.085Z,-95
2016-11-26T09:53:40.033Z,-87
2016-11-26T09:54:40.044Z,-87
2016-11-26T09:55:39.942Z,-92
2016-11-26T09:56:40.026Z,-90
2016-11-26T09:57:40.102Z,-96
2016-11-26T09:58:40.051Z,-95
2016-11-26T09:59:40.112Z,-90
2016-11-26T10:00:40.188Z,-96
2016-11-26T10:01:40.046Z,-85
2016-11-26T10:02:41.149Z,-96
2016-11-26T10:03:40.133Z,-96
2016-11-26T10:04:40.051Z,-92
2016-11-26T10:05:40.047Z,-96
2016-11-26T10:06:40.064Z,-96
2016-11-26T10:07:40.066Z,-96
2016-11-26T10:08:40.140Z,-96
2016-11-26T10:09:40.086Z,-96
2016-11-26T10:10:40.964Z,-96
2016-11-26T10:11:40.138Z,-96
2016-11-26T10:12:40.079Z,-96
2016-11-26T10:13:40.150Z,-96
2016-11-26T10:14:40.175Z,-96
2016-11-26T10:15:40.020Z,-96
2016-11-26T10:16:40.154Z,-96
2016-11-26T10:17:40.032Z,-94
2016-11-26T10:18:40.077Z,-96
2016-11-26T10:19:40.037Z,-96
2016-11-26T10:20:40.177Z,-96
2016-11-26T10:21:40.133Z,-96
2016-11-26T10:22:40.237Z,-96
2016-11-26T10:23:40.113Z,-96
2016-11-26T10:24:40.093Z,-96
2016-11-26T10:25:40.064Z,-96
2016-11-26T10:26:40.152Z,-95
2016-11-26T10:27:40.173Z,-96
2016-11-26T10:28:40.123Z,-96
2016-11-26T10:29:40.130Z,-96
2016-11-26T10:30:40.268Z,-96
2016-11-26T10:31:40.099Z,-96
2016-11-26T10:32:40.119Z,-96
2016-11-26T10:33:40.121Z,-96
2016-11-26T10:34:40.244Z,-96
2016-11-26T10:35:40.215Z,-96
2016-11-26T10:36:40.215Z,-96
2016-11-26T10:37:40.148Z,-96
2016-11-26T10:38:40.165Z,-96
2016-11-26T10:39:40.065Z,-96
2016-11-26T10:40:40.328Z,-96
2016-11-26T10:41:40.328Z,-96
2016-11-26T10:42:40.255Z,-96
2016-11-26T10:43:40.164Z,-96
2016-11-26T10:44:40.342Z,-94
2016-11-26T10:45:40.246Z,-95
2016-11-26T10:46:40.242Z,-96
2016-11-26T10:47:40.272Z,-95
2016-11-26T10:48:40.283Z,-94
2016-11-26T10:49:40.177Z,-94
2016-11-26T10:50:40.262Z,-95
2016-11-26T10:51:40.256Z,-93
2016-11-26T10:52:40.184Z,-95
2016-11-26T10:53:40.225Z,-95
2016-11-26T10:54:40.110Z,-90
2016-11-26T10:55:40.235Z,-94
2016-11-26T10:56:40.330Z,-95
2016-11-26T10:57:40.235Z,-90
2016-11-26T10:58:40.224Z,-87
2016-11-26T10:59:40.210Z,-93
2016-11-26T11:00:40.296Z,-86
2016-11-26T11:01:40.299Z,-91
2016-11-26T11:02:40.297Z,-89
2016-11-26T11:03:40.320Z,-89
2016-11-26T11:04:40.220Z,-91
2016-11-26T11:05:40.238Z,-93
2016-11-26T11:06:40.222Z,-95
2016-11-26T11:07:40.435Z,-93
2016-11-26T11:08:40.300Z,-91
2016-11-26T11:09:40.313Z,-94
2016-11-26T11:10:41.427Z,-95
2016-11-26T11:11:40.295Z,-94
2016-11-26T11:12:40.244Z,-90
2016-11-26T11:13:40.369Z,-93
2016-11-26T11:14:40.276Z,-88
2016-11-26T11:18:40.200Z,-88
2016-11-26T11:19:40.211Z,-94
2016-11-26T11:20:40.279Z,-96
2016-11-26T11:21:40.452Z,-96
2016-11-26T11:22:40.295Z,-94
2016-11-26T11:23:40.397Z,-95
2016-11-26T11:24:40.405Z,-95
2016-11-26T11:25:40.447Z,-96
2016-11-26T11:26:40.296Z,-91
2016-11-26T11:27:40.295Z,-88
2016-11-26T11:28:40.268Z,-95
2016-11-26T11:29:40.288Z,-94
2016-11-26T11:30:40.489Z,-95
2016-11-26T11:31:40.255Z,-93
2016-11-26T11:32:41.377Z,-91
2016-11-26T11:33:40.387Z,-95
2016-11-26T11:34:41.121Z,-94
2016-11-26T11:35:40.417Z,-94
2016-11-26T11:36:40.303Z,-93
2016-11-26T11:37:40.477Z,-94
2016-11-26T11:38:42.159Z,-96
2016-11-26T11:39:40.483Z,-96
2016-11-26T11:40:40.327Z,-90
2016-11-26T11:41:40.360Z,-94
2016-11-26T11:42:40.345Z,-93
2016-11-26T11:43:40.420Z,-96
2016-11-26T11:44:40.488Z,-95
2016-11-26T11:45:40.500Z,-95
2016-11-26T11:46:40.447Z,-90
2016-11-26T11:47:40.437Z,-90
2016-11-26T11:48:40.508Z,-91
2016-11-26T11:49:40.487Z,-93
2016-11-26T11:50:40.531Z,-95
2016-11-26T11:51:40.477Z,-91
2016-11-26T11:52:40.356Z,-96
2016-11-26T11:53:40.498Z,-94
2016-11-26T11:54:40.413Z,-96
2016-11-26T11:55:40.285Z,-96
2016-11-26T11:56:40.459Z,-96
2016-11-26T11:57:40.349Z,-96
2016-11-26T11:58:40.284Z,-95
2016-11-26T11:59:40.529Z,-96
2016-11-26T12:00:40.384Z,-95
2016-11-26T12:01:40.389Z,-96
2016-11-26T12:02:40.498Z,-95
2016-11-26T12:03:40.482Z,-95
2016-11-26T12:04:40.492Z,-95
2016-11-26T12:05:40.399Z,-96
2016-11-26T12:06:40.472Z,-96
2016-11-26T12:07:40.496Z,-95
2016-11-26T12:08:40.514Z,-94
2016-11-26T12:09:40.407Z,-95
2016-11-26T12:10:40.584Z,-95
2016-11-26T12:11:40.389Z,-96
2016-11-26T12:12:40.517Z,-95
2016-11-26T12:13:40.411Z,-96
2016-11-26T12:14:40.545Z,-95
2016-11-26T12:15:40.421Z,-95
2016-11-26T12:16:40.906Z,-95
2016-11-26T12:17:40.938Z,-96
2016-11-26T12:18:40.761Z,-95
2016-11-26T12:19:41.003Z,-95
2016-11-26T12:20:40.976Z,-96
2016-11-26T12:21:41.520Z,-94
2016-11-26T12:22:40.929Z,-96
2016-11-26T12:23:40.921Z,-96
2016-11-26T12:24:40.735Z,-96
2016-11-26T12:25:40.977Z,-96
2016-11-26T12:26:40.837Z,-96
2016-11-26T12:27:40.892Z,-96
2016-11-26T12:28:40.932Z,-95
2016-11-26T12:29:40.734Z,-95
2016-11-26T12:30:40.900Z,-95
2016-11-26T12:31:40.884Z,-96
2016-11-26T12:32:40.924Z,-95
2016-11-26T12:33:40.758Z,-95
2016-11-26T12:34:40.945Z,-95
2016-11-26T12:35:40.872Z,-96
2016-11-26T12:36:40.836Z,-95
2016-11-26T12:37:40.857Z,-96
2016-11-26T12:38:40.862Z,-96
2016-11-26T12:39:40.858Z,-96
2016-11-26T12:40:40.809Z,-96
2016-11-26T12:41:40.987Z,-96
2016-11-26T12:42:40.836Z,-95
2016-11-26T12:43:40.926Z,-96
2016-11-26T12:44:40.976Z,-96
2016-11-26T12:45:40.989Z,-95
2016-11-26T12:46:41.181Z,-96
2016-11-26T12:47:41.154Z,-96
2016-11-26T12:48:40.939Z,-95
2016-11-26T12:49:40.995Z,-96
2016-11-26T12:50:40.905Z,-95
2016-11-26T12:51:41.104Z,-96
2016-11-26T12:52:40.874Z,-96
2016-11-26T12:53:40.821Z,-96
2016-11-26T12:54:42.164Z,-95
2016-11-26T12:55:41.561Z,-96
2016-11-26T12:57:55.977Z,-96
2016-11-26T12:59:01.531Z,-96
2016-11-26T13:00:04.041Z,-96
2016-11-26T13:00:45.666Z,-96
2016-11-26T13:01:48.895Z,-96
2016-11-26T13:03:12.616Z,-96
2016-11-26T13:04:02.310Z,-96
2016-11-26T13:05:12.816Z,-96
2016-11-26T13:06:01.895Z,-96
2016-11-26T13:06:41.064Z,-96
2016-11-26T13:07:41.827Z,-96
2016-11-26T13:08:42.057Z,-95
2016-11-26T13:09:40.970Z,-96
2016-11-26T13:10:41.806Z,-96
2016-11-26T13:11:41.976Z,-95
2016-11-26T13:12:41.102Z,-96
2016-11-26T13:13:41.136Z,-96
2016-11-26T13:14:43.932Z,-96
2016-11-26T13:15:42.640Z,-95
2016-11-26T13:16:42.852Z,-96
2016-11-26T13:17:43.510Z,-96
2016-11-26T13:18:41.298Z,-96
2016-11-26T13:19:41.028Z,-96
2016-11-26T13:20:41.294Z,-96
2016-11-26T13:21:41.198Z,-95
2016-11-26T13:22:41.515Z,-96
2016-11-26T13:23:41.015Z,-96
2016-11-26T13:24:41.034Z,-96
2016-11-26T13:25:41.565Z,-95
2016-11-26T13:26:40.975Z,-96
2016-11-26T13:27:41.088Z,-95
2016-11-26T13:28:40.942Z,-96
2016-11-26T13:29:40.877Z,-96
2016-11-26T13:30:41.014Z,-96
2016-11-26T13:31:40.984Z,-96
2016-11-26T13:32:40.894Z,-96
2016-11-26T13:33:41.027Z,-96
2016-11-26T13:34:40.948Z,-95
2016-11-26T13:35:41.008Z,-95
2016-11-26T13:36:40.930Z,-96
2016-11-26T13:37:40.989Z,-95
2016-11-26T13:38:41.117Z,-96
2016-11-26T13:39:40.917Z,-95
2016-11-26T13:40:40.980Z,-95
2016-11-26T13:41:41.064Z,-95
2016-11-26T13:42:41.017Z,-95
2016-11-26T13:43:41.050Z,-95
2016-11-26T13:44:40.953Z,-95
2016-11-26T13:45:41.100Z,-96
2016-11-26T13:46:41.072Z,-95
2016-11-26T13:47:41.073Z,-96
2016-11-26T13:48:41.125Z,-96
2016-11-26T13:49:50.199Z,-94
2016-11-26T13:50:54.243Z,-94
2016-11-26T13:51:47.993Z,-95
2016-11-26T13:52:41.124Z,-96
2016-11-26T13:53:43.973Z,-91
2016-11-26T13:54:40.896Z,-95
2016-11-26T13:55:41.109Z,-96
2016-11-26T13:56:41.105Z,-95
2016-11-26T13:57:40.865Z,-96
2016-11-26T13:58:40.907Z,-95
2016-11-26T13:59:41.052Z,-96
2016-11-26T14:00:40.883Z,-96
2016-11-26T14:01:41.125Z,-96
2016-11-26T14:02:41.768Z,-96
2016-11-26T14:03:40.920Z,-96
2016-11-26T14:04:40.882Z,-96
2016-11-26T14:05:40.880Z,-96
2016-11-26T14:06:40.783Z,-95
2016-11-26T14:07:40.673Z,-96
2016-11-26T14:08:40.716Z,-96
2016-11-26T14:09:40.769Z,-95
2016-11-26T14:10:40.816Z,-95
2016-11-26T14:11:40.869Z,-96
2016-11-26T14:12:40.823Z,-95
2016-11-26T14:13:40.658Z,-95
2016-11-26T14:14:40.833Z,-96
2016-11-26T14:15:40.843Z,-96
2016-11-26T14:16:40.737Z,-96
2016-11-26T14:17:40.748Z,-95
2016-11-26T14:18:40.843Z,-95
2016-11-26T14:19:40.773Z,-96
2016-11-26T14:20:40.926Z,-95
2016-11-26T14:21:40.758Z,-95